Time;durP1;ratioP1;P1;durP2;ratioP2;P2;SDS_P1;SDS_P2;PMS_P1;PMS_P2;Temp;Humidity;BMP_temperature;BMP_pressure;BME280_temperature;BME280_humidity;BME280_pressure;Samples;Min_cycle;Max_cycle;Signal;HPM_P1;HPM_P2
2022/08/24 00:02:06;;;;;;;9.00;2.22;;;;;;;18.40;100.00;100592.03;5028500;28;20104;-88
2022/08/24 00:04:37;;;;;;;7.55;2.55;;;;;;;18.03;100.00;100602.63;5026581;28;20411;-88
2022/08/24 00:07:04;;;;;;;8.60;2.72;;;;;;;17.99;100.00;100625.84;5029378;28;20063;-89
2022/08/24 00:09:41;;;;;;;6.68;2.30;;;;;;;18.15;100.00;100622.06;5024017;28;20045;-89
2022/08/24 00:12:15;;;;;;;9.85;2.78;;;;;;;18.35;100.00;100641.88;5026004;28;20056;-88
2022/08/24 00:14:42;;;;;;;9.20;3.35;;;;;;;18.03;100.00;100606.09;5026592;28;20053;-88
2022/08/24 00:17:10;;;;;;;8.15;3.03;;;;;;;18.03;100.00;100614.06;5026444;28;20510;-87
2022/08/24 00:19:38;;;;;;;7.70;2.88;;;;;;;18.14;100.00;100623.06;5021592;28;20131;-87
2022/08/24 00:22:05;;;;;;;8.10;3.00;;;;;;;18.26;100.00;100642.53;5031030;28;20051;-88
2022/08/24 00:24:34;;;;;;;6.95;2.97;;;;;;;18.29;100.00;100642.28;5025094;28;20060;-87
2022/08/24 00:27:05;;;;;;;11.25;2.83;;;;;;;18.29;100.00;100629.91;5030650;28;20061;-88
2022/08/24 00:29:33;;;;;;;7.32;2.90;;;;;;;18.32;100.00;100637.63;5023531;28;20411;-89
2022/08/24 00:31:59;;;;;;;8.98;2.95;;;;;;;18.27;100.00;100610.59;5025541;28;20665;-88
2022/08/24 00:34:35;;;;;;;9.05;3.13;;;;;;;18.04;100.00;100585.75;5022529;28;20048;-88
2022/08/24 00:37:27;;;;;;;7.25;2.40;;;;;;;18.25;100.00;100607.22;5029219;28;20484;-88
2022/08/24 00:39:56;;;;;;;8.10;2.70;;;;;;;18.32;100.00;100610.28;5026142;28;20045;-89
2022/08/24 00:42:25;;;;;;;6.20;2.38;;;;;;;17.86;100.00;100548.19;5027838;28;20483;-89
2022/08/24 00:44:55;;;;;;;7.43;2.70;;;;;;;17.83;100.00;100566.94;5031031;28;20112;-89
2022/08/24 00:47:32;;;;;;;7.55;2.70;;;;;;;18.00;100.00;100597.53;5016962;28;20056;-88
2022/08/24 00:50:06;;;;;;;9.20;2.60;;;;;;;18.00;100.00;100600.19;5021154;28;20505;-88
2022/08/24 00:52:46;;;;;;;8.57;2.72;;;;;;;17.99;100.00;100593.22;5043008;28;20088;-89
2022/08/24 00:55:42;;;;;;;6.70;2.40;;;;;;;18.19;100.00;100591.78;5028864;28;20064;-89
2022/08/24 00:58:13;;;;;;;7.70;2.20;;;;;;;18.47;100.00;100634.81;5028699;28;20050;-89
2022/08/24 01:00:50;;;;;;;10.15;2.33;;;;;;;18.37;100.00;100619.59;5026450;28;20046;-89
2022/08/24 01:03:17;;;;;;;5.78;2.20;;;;;;;18.34;100.00;100617.19;5030705;28;20046;-90
2022/08/24 01:05:45;;;;;;;7.25;2.45;;;;;;;18.05;100.00;100602.53;5021902;28;20061;-89
2022/08/24 01:08:14;;;;;;;7.05;2.17;;;;;;;17.98;100.00;100596.81;5027148;28;20472;-89
2022/08/24 01:11:11;;;;;;;5.13;1.95;;;;;;;18.43;100.00;100636.84;5031930;28;20523;-89
2022/08/24 01:13:42;;;;;;;6.07;2.30;;;;;;;18.33;100.00;100620.78;5029157;28;20049;-90
2022/08/24 01:16:11;;;;;;;6.82;2.25;;;;;;;18.36;100.00;100601.16;5030548;28;20045;-89
2022/08/24 01:18:51;;;;;;;7.93;2.13;;;;;;;18.33;100.00;100602.22;5033741;28;20053;-89
2022/08/24 01:21:27;;;;;;;7.85;2.08;;;;;;;18.39;100.00;100617.66;5034328;28;20080;-88
2022/08/24 01:23:58;;;;;;;7.38;2.58;;;;;;;18.27;100.00;100618.56;5020213;28;20053;-88
2022/08/24 01:26:47;;;;;;;7.15;2.08;;;;;;;18.23;100.00;100613.59;5033813;28;20049;-88
2022/08/24 01:29:27;;;;;;;7.03;2.35;;;;;;;18.12;100.00;100606.41;5032370;28;20054;-88
2022/08/24 01:31:57;;;;;;;7.03;1.90;;;;;;;18.19;100.00;100616.47;5021266;28;20057;-88
2022/08/24 01:34:24;;;;;;;8.13;2.22;;;;;;;17.98;100.00;100602.09;5031878;28;20049;-89
2022/08/24 01:36:54;;;;;;;6.10;2.38;;;;;;;17.99;100.00;100617.06;5017639;28;20506;-89
2022/08/24 01:39:27;;;;;;;6.57;2.55;;;;;;;18.01;100.00;100620.44;5033197;28;20081;-88
2022/08/24 01:41:55;;;;;;;6.22;2.38;;;;;;;18.06;100.00;100606.84;5021843;28;20054;-88
2022/08/24 01:44:23;;;;;;;6.35;2.20;;;;;;;18.08;100.00;100608.44;5033521;28;20472;-88
2022/08/24 01:46:54;;;;;;;6.38;2.15;;;;;;;18.03;100.00;100613.22;5022296;28;20514;-88
2022/08/24 01:49:27;;;;;;;6.07;1.90;;;;;;;18.16;100.00;100619.31;5027588;28;20091;-88
2022/08/24 01:51:55;;;;;;;4.88;1.55;;;;;;;18.18;100.00;100619.22;5033624;28;20048;-88
2022/08/24 01:54:23;;;;;;;4.43;1.90;;;;;;;17.99;100.00;100625.84;5018580;28;20499;-89
2022/08/24 01:56:50;;;;;;;6.97;2.08;;;;;;;17.98;100.00;100623.28;5032195;28;20045;-89
2022/08/24 01:59:19;;;;;;;5.72;1.90;;;;;;;18.03;100.00;100610.56;5038094;28;20050;-88
2022/08/24 02:01:51;;;;;;;6.75;2.05;;;;;;;17.89;100.00;100608.06;5032492;28;20045;-88
2022/08/24 02:04:18;;;;;;;5.75;1.90;;;;;;;18.00;100.00;100618.72;5033454;28;20168;-88
2022/08/24 02:06:45;;;;;;;5.47;1.90;;;;;;;18.07;100.00;100611.19;5033456;28;20056;-89
2022/08/24 02:09:12;;;;;;;5.38;1.80;;;;;;;18.06;100.00;100604.19;5030788;28;20052;-90
2022/08/24 02:11:40;;;;;;;6.35;2.00;;;;;;;17.97;100.00;100603.91;5033477;28;20047;-89
2022/08/24 02:14:07;;;;;;;4.63;1.88;;;;;;;17.93;100.00;100598.94;5033363;28;20063;-89
2022/08/24 02:16:35;;;;;;;6.97;1.90;;;;;;;17.86;100.00;100593.22;5026666;28;20522;-89
2022/08/24 02:19:02;;;;;;;6.95;2.00;;;;;;;17.75;100.00;100599.22;5031631;28;20479;-89
2022/08/24 02:21:29;;;;;;;4.30;1.60;;;;;;;17.67;100.00;100593.63;5022010;28;20050;-88
2022/08/24 02:23:56;;;;;;;4.55;1.92;;;;;;;17.75;100.00;100595.75;5021712;28;20477;-89
2022/08/24 02:26:23;;;;;;;6.32;2.20;;;;;;;17.75;100.00;100609.81;5030041;28;20045;-89
2022/08/24 02:28:55;;;;;;;5.30;1.98;;;;;;;17.70;100.00;100595.22;5021675;28;20042;-88
2022/08/24 02:31:24;;;;;;;5.50;2.00;;;;;;;17.79;100.00;100595.41;5033000;28;20484;-89
2022/08/24 02:33:51;;;;;;;5.32;2.20;;;;;;;17.61;100.00;100581.66;5032594;28;20052;-88
2022/08/24 02:36:18;;;;;;;6.00;2.03;;;;;;;17.68;100.00;100605.91;5032776;28;20057;-88
2022/08/24 02:38:53;;;;;;;7.60;2.10;;;;;;;17.53;100.00;100593.72;5019539;28;20060;-89
2022/08/24 02:41:23;;;;;;;6.03;2.33;;;;;;;17.22;100.00;100607.25;5025600;28;20046;-89
2022/08/24 02:43:51;;;;;;;5.05;1.90;;;;;;;17.19;100.00;100586.31;5034273;28;20049;-89
2022/08/24 02:46:24;;;;;;;4.68;2.05;;;;;;;17.52;100.00;100605.28;5033069;28;20053;-89
2022/08/24 02:48:52;;;;;;;5.40;1.73;;;;;;;17.36;100.00;100598.38;5033091;28;20049;-89
2022/08/24 02:51:37;;;;;;;6.47;2.50;;;;;;;17.51;100.00;100606.22;5030082;28;20399;-89
2022/08/24 02:54:11;;;;;;;8.05;2.30;;;;;;;17.58;100.00;100597.78;5019075;28;20064;-88
2022/08/24 02:56:38;;;;;;;6.80;2.50;;;;;;;17.71;100.00;100591.63;5032601;28;20056;-89
2022/08/24 02:59:06;;;;;;;8.20;2.47;;;;;;;17.68;100.00;100586.53;5032456;28;20045;-88
2022/08/24 03:01:32;;;;;;;5.70;2.03;;;;;;;17.70;100.00;100584.63;5032566;28;20049;-88
2022/08/24 03:03:59;;;;;;;7.35;2.42;;;;;;;17.64;100.00;100584.09;5018158;28;20133;-89
2022/08/24 03:06:26;;;;;;;7.28;2.40;;;;;;;17.70;100.00;100587.28;5032712;28;20502;-88
2022/08/24 03:08:53;;;;;;;8.93;2.78;;;;;;;17.45;100.00;100579.22;5032145;28;20406;-89
2022/08/24 03:11:23;;;;;;;8.27;3.05;;;;;;;17.36;100.00;100593.09;5033005;28;20049;-87
2022/08/24 03:13:57;;;;;;;8.30;2.55;;;;;;;17.38;100.00;100590.34;5032976;28;20788;-87
2022/08/24 03:16:25;;;;;;;6.90;2.70;;;;;;;17.13;100.00;100578.78;5020714;28;20081;-91
2022/08/24 03:18:52;;;;;;;7.55;2.88;;;;;;;17.02;100.00;100574.22;5024451;28;20050;-91
2022/08/24 03:21:22;;;;;;;6.93;2.42;;;;;;;17.03;100.00;100594.44;5030978;28;20381;-89
2022/08/24 03:23:49;;;;;;;8.23;2.60;;;;;;;17.03;100.00;100591.78;5021573;28;20056;-88
2022/08/24 03:26:16;;;;;;;8.23;2.95;;;;;;;16.92;100.00;100582.88;5015534;28;20042;-87
2022/08/24 03:28:43;;;;;;;8.98;2.58;;;;;;;17.02;100.00;100599.81;5031411;28;20045;-88
2022/08/24 03:31:11;;;;;;;8.98;3.30;;;;;;;16.87;100.00;100597.25;5030169;28;20045;-91
2022/08/24 03:33:38;;;;;;;9.32;3.72;;;;;;;16.66;100.00;100580.97;5021685;28;20103;-90
2022/08/24 03:36:05;;;;;;;7.97;3.00;;;;;;;16.77;100.00;100556.47;5018104;28;20400;-90
2022/08/24 03:38:36;;;;;;;8.57;2.80;;;;;;;17.07;100.00;100571.28;5031033;28;20053;-90
2022/08/24 03:41:03;;;;;;;9.63;3.25;;;;;;;17.02;100.00;100578.66;5031379;28;20050;-89
2022/08/24 03:43:45;;;;;;;7.13;2.60;;;;;;;17.01;100.00;100561.09;5031040;28;20049;-90
2022/08/24 03:46:14;;;;;;;6.50;2.42;;;;;;;17.22;100.00;100570.22;5031225;28;20484;-90
2022/08/24 03:48:43;;;;;;;6.35;2.47;;;;;;;17.50;100.00;100562.19;5018001;28;20049;-90
2022/08/24 03:51:12;;;;;;;6.93;2.17;;;;;;;17.57;100.00;100582.00;5023852;28;20133;-90
2022/08/24 03:53:39;;;;;;;6.25;2.42;;;;;;;17.24;100.00;100515.38;5032851;28;20041;-88
2022/08/24 03:56:10;;;;;;;6.05;2.47;;;;;;;17.68;100.00;100571.50;5021899;28;20073;-88
2022/08/24 03:58:40;;;;;;;6.55;2.03;;;;;;;17.72;100.00;100565.00;5028737;28;20555;-87
2022/08/24 04:01:07;;;;;;;6.13;2.45;;;;;;;17.79;100.00;100573.38;5025366;28;20128;-88
2022/08/24 04:03:36;;;;;;;6.15;2.33;;;;;;;17.61;100.00;100562.28;5031430;28;20076;-88
2022/08/24 04:06:04;;;;;;;6.07;2.17;;;;;;;17.74;100.00;100554.31;5031104;28;20057;-88
2022/08/24 04:08:31;;;;;;;7.80;2.22;;;;;;;17.81;100.00;100563.53;5025086;28;20045;-88
2022/08/24 04:10:58;;;;;;;7.03;2.40;;;;;;;17.75;100.00;100558.66;5029011;28;20068;-88
2022/08/24 04:13:25;;;;;;;5.93;2.30;;;;;;;17.56;100.00;100554.66;5031795;28;20081;-89
2022/08/24 04:15:52;;;;;;;6.07;2.17;;;;;;;17.56;100.00;100530.00;5031266;28;20559;-88
2022/08/24 04:18:19;;;;;;;8.13;2.33;;;;;;;17.61;100.00;100541.94;5030610;28;20049;-89
2022/08/24 04:20:45;;;;;;;6.68;2.10;;;;;;;17.68;100.00;100537.06;5032248;28;20046;-89
2022/08/24 04:23:14;;;;;;;5.80;2.17;;;;;;;17.75;100.00;100558.66;5032685;28;20136;-88
2022/08/24 04:25:43;;;;;;;6.53;2.20;;;;;;;17.51;100.00;100562.09;5031545;28;20049;-88
2022/08/24 04:28:12;;;;;;;5.35;2.22;;;;;;;17.45;100.00;100559.84;5021791;28;20507;-88
2022/08/24 04:30:44;;;;;;;6.38;2.42;;;;;;;17.53;100.00;100567.25;5022596;28;20080;-88
2022/08/24 04:33:13;;;;;;;8.60;2.50;;;;;;;17.38;100.00;100555.94;5030824;28;20059;-89
2022/08/24 04:35:44;;;;;;;6.30;2.28;;;;;;;17.31;100.00;100567.91;5031768;28;20060;-91
2022/08/24 04:38:11;;;;;;;7.28;2.60;;;;;;;17.14;100.00;100538.16;5020853;28;20499;-89
2022/08/24 04:40:39;;;;;;;6.35;2.60;;;;;;;17.27;100.00;100543.44;5022270;28;20052;-86
2022/08/24 04:43:07;;;;;;;8.38;2.55;;;;;;;17.15;100.00;100541.66;5028335;28;20107;-87
2022/08/24 04:45:39;;;;;;;6.68;2.50;;;;;;;17.06;100.00;100553.69;5019145;28;20056;-86
2022/08/24 04:48:06;;;;;;;8.07;2.70;;;;;;;16.70;100.00;100515.53;5029890;28;20054;-85
2022/08/24 04:50:34;;;;;;;7.70;2.65;;;;;;;16.63;100.00;100519.53;5031603;28;20057;-85
2022/08/24 04:53:03;;;;;;;6.45;2.25;;;;;;;16.84;100.00;100531.34;5032643;28;20045;-85
2022/08/24 04:55:31;;;;;;;6.20;2.42;;;;;;;17.08;100.00;100549.97;5037261;28;20049;-89
2022/08/24 04:57:58;;;;;;;7.28;2.30;;;;;;;17.08;100.00;100554.44;5032609;28;20061;-89
2022/08/24 05:00:25;;;;;;;5.80;2.10;;;;;;;16.91;100.00;100537.06;5032934;28;20041;-87
2022/08/24 05:02:52;;;;;;;7.70;2.63;;;;;;;17.01;100.00;100537.28;5029106;28;20153;-89
2022/08/24 05:05:19;;;;;;;5.85;2.30;;;;;;;17.01;100.00;100530.19;5029838;28;20502;-89
2022/08/24 05:07:45;;;;;;;6.03;2.13;;;;;;;16.98;100.00;100525.13;5036381;28;20045;-89
2022/08/24 05:10:12;;;;;;;5.03;1.80;;;;;;;17.22;100.00;100533.19;5037171;28;20053;-89
2022/08/24 05:12:39;;;;;;;4.93;1.98;;;;;;;17.11;100.00;100542.81;5037646;28;20468;-88
2022/08/24 05:15:06;;;;;;;6.25;2.10;;;;;;;16.98;100.00;100538.34;5037408;28;20136;-89
2022/08/24 05:17:33;;;;;;;7.10;2.03;;;;;;;17.14;100.00;100539.94;5035395;28;20042;-88
2022/08/24 05:20:00;;;;;;;8.85;2.22;;;;;;;17.16;100.00;100523.03;5025286;28;20403;-89
2022/08/24 05:22:27;;;;;;;9.05;2.45;;;;;;;17.09;100.00;100540.28;5036812;28;20056;-88
2022/08/24 05:24:53;;;;;;;6.45;2.55;;;;;;;16.82;100.00;100530.56;5037059;28;20569;-88
2022/08/24 05:27:21;;;;;;;7.55;2.58;;;;;;;17.05;100.00;100539.63;5037352;28;20472;-88
2022/08/24 05:29:54;;;;;;;6.55;2.25;;;;;;;17.03;100.00;100530.97;5024810;28;20045;-89
2022/08/24 05:32:21;;;;;;;6.55;2.28;;;;;;;17.13;100.00;100535.63;5029252;28;20049;-89
2022/08/24 05:34:48;;;;;;;8.80;2.83;;;;;;;17.13;100.00;100525.88;5038074;28;20045;-89
2022/08/24 05:37:15;;;;;;;9.23;2.78;;;;;;;17.20;100.00;100523.66;5036448;28;20068;-89
2022/08/24 05:39:41;;;;;;;8.15;2.97;;;;;;;17.30;100.00;100540.59;5026224;28;20053;-89
2022/08/24 05:42:08;;;;;;;7.32;2.80;;;;;;;17.17;100.00;100532.63;5024815;28;20447;-88
2022/08/24 05:44:35;;;;;;;7.82;3.55;;;;;;;17.09;100.00;100505.88;5017313;28;20054;-90
2022/08/24 05:47:02;;;;;;;5.32;2.28;;;;;;;17.38;100.00;100535.59;5026581;28;20060;-89
2022/08/24 05:49:29;;;;;;;8.00;2.80;;;;;;;17.54;100.00;100534.56;5016878;28;20050;-89
2022/08/24 05:51:57;;;;;;;8.98;3.65;;;;;;;17.49;100.00;100526.06;5016971;28;20042;-89
2022/08/24 05:54:25;;;;;;;9.88;3.95;;;;;;;17.42;100.00;100545.03;5023101;28;20046;-89
2022/08/24 05:56:53;;;;;;;9.18;3.50;;;;;;;17.27;100.00;100501.97;5023813;28;20132;-89
2022/08/24 05:59:21;;;;;;;9.55;3.40;;;;;;;17.27;100.00;100531.06;5024716;28;20048;-91
2022/08/24 06:01:48;;;;;;;11.05;3.80;;;;;;;17.26;100.00;100560.25;5031288;28;20052;-91
2022/08/24 06:04:15;;;;;;;9.52;3.88;;;;;;;17.34;100.00;100557.13;5029571;28;20051;-91
2022/08/24 06:06:42;;;;;;;7.50;2.80;;;;;;;17.55;100.00;100552.97;5035052;28;20061;-91
2022/08/24 06:09:11;;;;;;;8.82;3.10;;;;;;;17.56;100.00;100528.19;5033492;28;20108;-91
2022/08/24 06:11:39;;;;;;;8.32;3.60;;;;;;;17.80;100.00;100557.38;5033805;28;20053;-91
2022/08/24 06:14:10;;;;;;;9.80;4.40;;;;;;;17.90;100.00;100560.28;5033399;28;20128;-90
2022/08/24 06:16:40;;;;;;;11.40;4.40;;;;;;;17.90;100.00;100548.81;5034250;28;20439;-90
2022/08/24 06:19:09;;;;;;;9.82;3.47;;;;;;;17.96;100.00;100556.34;5032454;28;20057;-90
2022/08/24 06:21:36;;;;;;;10.30;4.22;;;;;;;17.88;100.00;100558.69;5020519;28;20060;-91
2022/08/24 06:24:04;;;;;;;11.45;5.20;;;;;;;17.97;100.00;100545.63;5020040;28;20050;-89
2022/08/24 06:29:18;;;;;;;9.02;3.83;;;;;;;18.11;100.00;100538.47;5021723;28;20408;-89
2022/08/24 06:31:47;;;;;;;10.27;3.92;;;;;;;18.02;100.00;100524.09;5033016;28;20472;-90
2022/08/24 06:34:21;;;;;;;8.63;3.55;;;;;;;18.12;100.00;100535.72;5032770;28;20099;-89
2022/08/24 06:36:49;;;;;;;10.65;3.63;;;;;;;18.02;100.00;100532.03;5019507;28;20041;-90
2022/08/24 06:39:16;;;;;;;10.70;4.43;;;;;;;17.97;100.00;100527.09;5021959;28;20053;-90
2022/08/24 06:41:43;;;;;;;10.18;4.70;;;;;;;17.91;100.00;100506.31;5032673;28;20065;-90
2022/08/24 06:44:11;;;;;;;10.57;4.30;;;;;;;17.98;100.00;100507.56;5033751;28;20049;-90
2022/08/24 06:46:38;;;;;;;11.77;4.72;;;;;;;18.12;100.00;100517.19;5030558;28;20171;-90
2022/08/24 06:49:04;;;;;;;9.07;3.60;;;;;;;18.14;100.00;100517.06;5017082;28;20045;-91
2022/08/24 06:51:31;;;;;;;12.00;4.43;;;;;;;17.94;100.00;100498.16;5032320;28;20047;-91
2022/08/24 06:53:59;;;;;;;10.77;4.53;;;;;;;18.12;100.00;100537.53;5029725;28;20046;-91
2022/08/24 06:56:25;;;;;;;12.02;6.30;;;;;;;18.00;100.00;100515.41;5032584;28;20050;-91
2022/08/24 06:58:52;;;;;;;16.40;7.82;;;;;;;18.06;100.00;100525.59;5023099;28;20067;-91
2022/08/24 07:01:23;;;;;;;23.02;12.25;;;;;;;17.89;100.00;100521.50;5025651;28;20126;-91
2022/08/24 07:03:50;;;;;;;19.98;10.65;;;;;;;17.91;100.00;100521.38;5029278;28;20050;-90
2022/08/24 07:06:17;;;;;;;16.63;8.52;;;;;;;17.85;100.00;100535.88;5029834;28;20061;-90
2022/08/24 07:08:44;;;;;;;15.40;8.80;;;;;;;17.53;100.00;100501.09;5028774;28;20045;-89
2022/08/24 07:11:16;;;;;;;14.27;6.85;;;;;;;17.53;100.00;100527.53;5027076;28;20167;-91
2022/08/24 07:13:46;;;;;;;10.98;5.20;;;;;;;17.79;100.00;100549.53;5026294;28;20060;-91
2022/08/24 07:16:18;;;;;;;10.45;4.20;;;;;;;17.81;100.00;100543.19;5031591;28;20059;-91
2022/08/24 07:18:45;;;;;;;10.15;4.55;;;;;;;17.71;100.00;100560.69;5024379;28;20054;-90
2022/08/24 07:21:18;;;;;;;11.63;4.05;;;;;;;17.55;100.00;100534.44;5027329;28;20062;-90
2022/08/24 07:23:47;;;;;;;11.95;5.18;;;;;;;17.65;100.00;100555.81;5028181;28;20069;-90
2022/08/24 07:26:21;;;;;;;10.10;4.13;;;;;;;17.62;100.00;100543.66;5014334;28;20485;-90
2022/08/24 07:28:58;;;;;;;9.88;4.30;;;;;;;17.64;100.00;100546.19;5025563;28;20100;-89
2022/08/24 07:31:25;;;;;;;9.32;3.60;;;;;;;17.82;100.00;100555.47;5021542;28;20056;-89
2022/08/24 07:33:52;;;;;;;9.63;4.00;;;;;;;17.70;100.00;100526.38;5019368;28;20404;-89
2022/08/24 07:36:18;;;;;;;8.57;3.35;;;;;;;17.79;100.00;100526.56;5021104;28;20052;-89
2022/08/24 07:38:51;;;;;;;8.40;3.40;;;;;;;17.83;100.00;100543.09;5026555;28;20057;-90
2022/08/24 07:41:19;;;;;;;7.50;3.15;;;;;;;17.93;100.00;100538.84;5017658;28;20054;-90
2022/08/24 07:44:07;;;;;;;8.25;3.83;;;;;;;18.01;100.00;100528.56;5019015;28;20389;-89
2022/08/24 07:46:34;;;;;;;9.00;3.38;;;;;;;18.10;100.00;100539.47;5012094;28;20084;-89
2022/08/24 07:49:01;;;;;;;9.13;3.72;;;;;;;17.99;100.00;100533.13;5020205;28;20597;-91
2022/08/24 07:51:38;;;;;;;8.77;3.45;;;;;;;18.08;100.00;100560.75;5025671;28;20041;-91
2022/08/24 07:54:12;;;;;;;8.43;4.00;;;;;;;17.79;100.00;100563.63;5012191;28;20054;-90
2022/08/24 07:56:40;;;;;;;8.35;3.80;;;;;;;17.97;100.00;100555.34;5013930;28;20047;-88
2022/08/24 07:59:07;;;;;;;10.88;3.92;;;;;;;17.89;100.00;100558.56;5014678;28;20054;-89
2022/08/24 08:01:39;;;;;;;8.68;4.00;;;;;;;17.96;100.00;100548.38;5015781;28;20053;-88
2022/08/24 08:04:06;;;;;;;10.07;3.58;;;;;;;17.86;100.00;100550.84;5021961;28;20045;-87
2022/08/24 08:06:33;;;;;;;10.43;4.18;;;;;;;17.89;100.00;100566.50;5010712;28;20133;-88
2022/08/24 08:09:03;;;;;;;8.73;3.67;;;;;;;18.00;100.00;100569.22;5013748;28;20049;-89
2022/08/24 08:11:30;;;;;;;8.45;3.40;;;;;;;18.02;100.00;100579.72;5023313;28;20060;-88
2022/08/24 08:13:57;;;;;;;8.70;3.38;;;;;;;17.93;100.00;100567.97;5041783;28;20049;-89
2022/08/24 08:16:25;;;;;;;12.57;4.22;;;;;;;17.94;100.00;100582.09;5020141;28;20412;-89
2022/08/24 08:18:52;;;;;;;11.18;3.78;;;;;;;17.98;100.00;100588.84;5018986;28;20055;-89
2022/08/24 08:24:26;;;;;;;9.07;3.75;;;;;;;18.07;100.00;100590.84;5017822;28;20048;-90
2022/08/24 08:26:53;;;;;;;9.15;4.20;;;;;;;18.10;100.00;100601.22;5021229;28;20053;-89
2022/08/24 08:29:20;;;;;;;11.52;4.18;;;;;;;17.92;100.00;100591.91;5021477;28;20049;-90
2022/08/24 08:31:47;;;;;;;11.27;5.00;;;;;;;17.70;100.00;100596.06;5025966;28;20049;-89
2022/08/24 08:34:14;;;;;;;10.18;4.95;;;;;;;17.58;100.00;100603.06;5020976;28;20488;-90
2022/08/24 08:36:41;;;;;;;9.05;4.20;;;;;;;17.70;100.00;100590.75;5027108;28;20049;-89
2022/08/24 08:39:12;;;;;;;9.10;4.10;;;;;;;17.46;100.00;100596.81;5014902;28;20061;-89
2022/08/24 08:41:50;;;;;;;9.68;3.92;;;;;;;17.40;100.00;100614.91;5020977;28;20049;-90
2022/08/24 08:44:44;;;;;;;9.88;4.70;;;;;;;17.57;100.00;100617.25;5016455;28;20123;-90
2022/08/24 08:47:29;;;;;;;8.98;4.28;;;;;;;17.45;100.00;100610.13;5017810;28;20054;-90
2022/08/24 08:50:14;;;;;;;8.75;3.28;;;;;;;17.75;100.00;100601.03;5017969;28;20050;-90
2022/08/24 08:53:08;;;;;;;8.65;3.65;;;;;;;17.76;100.00;100600.06;5019693;28;20495;-90
2022/08/24 08:55:44;;;;;;;7.90;2.60;;;;;;;17.86;100.00;100595.03;5017666;28;20049;-91
2022/08/24 08:58:19;;;;;;;8.40;2.80;;;;;;;17.84;100.00;100605.69;5025691;28;20049;-90
2022/08/24 09:01:02;;;;;;;6.57;2.40;;;;;;;17.58;100.00;100566.00;5025425;28;20045;-91
2022/08/24 09:03:43;;;;;;;6.53;2.65;;;;;;;17.81;100.00;100600.59;5026325;28;20046;-91
2022/08/24 09:06:21;;;;;;;9.25;2.63;;;;;;;17.95;100.00;100592.56;5018678;28;20057;-91
2022/08/24 09:08:56;;;;;;;5.75;2.20;;;;;;;18.14;100.00;100581.50;5019364;28;20048;-92
2022/08/24 09:11:35;;;;;;;5.20;2.03;;;;;;;18.17;100.00;100593.69;5026158;28;20834;-91
2022/08/24 09:14:46;;;;;;;6.07;1.95;;;;;;;18.08;100.00;100578.44;5013049;28;20396;-91
2022/08/24 09:17:32;;;;;;;5.25;1.77;;;;;;;18.10;100.00;100576.53;5016151;28;20576;-92
2022/08/24 09:20:10;;;;;;;5.88;2.25;;;;;;;17.98;100.00;100571.16;5026094;28;20076;-93
2022/08/24 09:22:42;;;;;;;5.95;2.03;;;;;;;17.95;100.00;100575.81;5015617;28;20050;-93
2022/08/24 09:25:24;;;;;;;6.40;2.22;;;;;;;18.11;100.00;100546.44;5021902;28;20056;-92
2022/08/24 09:28:12;;;;;;;7.15;2.85;;;;;;;18.19;100.00;100560.81;5023013;28;20435;-90
2022/08/24 09:30:46;;;;;;;6.05;2.40;;;;;;;18.20;100.00;100561.66;5016322;28;20121;-91
2022/08/24 09:33:12;;;;;;;6.93;2.50;;;;;;;18.17;100.00;100560.09;5013526;28;20072;-91
2022/08/24 09:36:06;;;;;;;4.82;1.85;;;;;;;18.32;100.00;100560.75;5017191;28;20057;-90
2022/08/24 09:38:55;;;;;;;5.93;2.22;;;;;;;18.32;100.00;100567.88;5028152;28;20123;-90
2022/08/24 09:41:52;;;;;;;6.95;2.83;;;;;;;17.82;100.00;100555.47;5025139;28;20053;-91
2022/08/24 09:44:38;;;;;;;6.47;2.22;;;;;;;17.89;100.00;100570.97;5019633;28;20053;-90
2022/08/24 09:47:08;;;;;;;8.52;2.70;;;;;;;17.89;100.00;100566.50;5020843;28;20762;-91
2022/08/24 09:50:28;;;;;;;8.10;3.35;;;;;;;17.53;100.00;100507.25;5022881;28;20045;-90
2022/08/24 09:53:32;;;;;;;6.78;2.30;;;;;;;18.07;100.00;100556.41;5010036;28;20053;-91
2022/08/24 09:56:03;;;;;;;7.95;2.60;;;;;;;17.93;100.00;100546.78;5001340;28;20057;-90
2022/08/24 09:59:05;;;;;;;7.82;2.97;;;;;;;18.18;100.00;100545.03;5025635;28;20041;-91
2022/08/24 10:01:49;;;;;;;6.40;2.03;;;;;;;18.24;100.00;100538.44;5037373;28;20130;-91
2022/08/24 10:04:31;;;;;;;4.88;2.00;;;;;;;18.30;100.00;100538.00;5032489;28;20025;-90
2022/08/24 10:07:14;;;;;;;7.68;3.22;;;;;;;18.36;100.00;100533.09;5032992;28;20061;-91
2022/08/24 10:09:52;;;;;;;8.07;2.95;;;;;;;18.11;100.00;100543.78;5033468;28;20407;-92
2022/08/24 10:12:22;;;;;;;7.80;3.05;;;;;;;18.11;100.00;100549.06;5018533;28;20140;-91
2022/08/24 10:14:53;;;;;;;6.80;3.00;;;;;;;18.04;100.00;100548.66;5021010;28;20047;-91
2022/08/24 10:17:59;;;;;;;7.00;3.03;;;;;;;18.11;100.00;100535.84;5032989;28;20083;-91
2022/08/24 10:21:01;;;;;;;5.85;2.25;;;;;;;18.21;100.00;100545.66;4972970;28;20511;-91
2022/08/24 10:23:48;;;;;;;12.30;5.00;;;;;;;18.18;100.00;100531.78;5019036;28;20041;-93
2022/08/24 10:26:37;;;;;;;7.13;3.13;;;;;;;18.26;100.00;100549.78;5012322;28;20160;-90
2022/08/24 10:29:30;;;;;;;7.60;3.35;;;;;;;18.27;100.00;100536.41;5025803;28;20045;-91
2022/08/24 10:32:18;;;;;;;7.82;2.83;;;;;;;18.25;100.00;100550.72;5007456;28;20049;-92
2022/08/24 10:35:12;;;;;;;7.05;2.75;;;;;;;18.33;100.00;100548.38;5025620;28;20051;-92
2022/08/24 10:41:04;;;;;;;7.45;2.78;;;;;;;18.12;100.00;100508.41;5011710;28;20060;-90
2022/08/24 10:43:41;;;;;;;6.40;2.88;;;;;;;18.39;100.00;100524.91;5019373;28;20053;-90
2022/08/24 10:46:23;;;;;;;7.03;2.42;;;;;;;18.46;100.00;100519.16;5012621;28;20080;-90
2022/08/24 10:49:16;;;;;;;5.30;1.88;;;;;;;18.51;100.00;100517.84;5017900;28;20045;-90
2022/08/24 10:51:46;;;;;;;5.53;2.20;;;;;;;18.49;100.00;100508.34;5012201;28;20124;-90
2022/08/24 10:54:13;;;;;;;6.25;2.40;;;;;;;18.30;100.00;100500.91;5021241;28;20057;-91
2022/08/24 10:56:57;;;;;;;7.63;3.40;;;;;;;18.32;100.00;100499.81;5030134;28;20058;-91
2022/08/24 10:59:36;;;;;;;7.90;2.88;;;;;;;18.37;100.00;100510.91;5018244;28;20053;-90
2022/08/24 11:02:10;;;;;;;7.97;3.25;;;;;;;18.38;100.00;100512.63;5020043;28;20056;-90
2022/08/24 11:04:39;;;;;;;6.60;2.10;;;;;;;18.24;100.00;100502.19;5024464;28;20439;-90
2022/08/24 11:07:08;;;;;;;5.40;2.22;;;;;;;18.27;100.00;100512.53;5024708;28;20057;-89
2022/08/24 11:09:55;;;;;;;7.20;3.10;;;;;;;18.26;100.00;100510.03;5015175;28;20054;-90
2022/08/24 11:12:40;;;;;;;5.55;2.30;;;;;;;18.43;100.00;100514.91;5025876;28;20059;-90
2022/08/24 11:15:19;;;;;;;5.30;2.25;;;;;;;18.38;100.00;100527.69;5019249;28;20053;-90
2022/08/24 11:17:59;;;;;;;5.35;2.15;;;;;;;18.45;100.00;100514.81;5012580;28;20053;-90
2022/08/24 11:20:32;;;;;;;6.40;2.33;;;;;;;18.29;100.00;100533.63;5013005;28;20093;-91
2022/08/24 11:23:04;;;;;;;5.18;2.03;;;;;;;18.29;100.00;100510.66;5011549;28;20045;-90
2022/08/24 11:25:35;;;;;;;4.20;1.77;;;;;;;18.51;100.00;100524.97;5020405;28;20056;-91
2022/08/24 11:28:25;;;;;;;7.82;2.63;;;;;;;18.14;100.00;100512.59;5023184;28;20411;-90
2022/08/24 11:30:52;;;;;;;4.72;1.83;;;;;;;18.35;100.00;100501.41;5022963;28;20049;-91
2022/08/24 11:33:47;;;;;;;6.25;2.42;;;;;;;18.47;100.00;100513.75;5031230;28;20042;-90
2022/08/24 11:36:24;;;;;;;9.05;3.92;;;;;;;18.34;100.00;100516.47;5023152;28;20057;-91
2022/08/24 11:39:28;;;;;;;8.70;4.30;;;;;;;18.37;100.00;100515.38;5024534;28;20049;-91
2022/08/24 11:41:57;;;;;;;9.55;3.80;;;;;;;18.28;100.00;100516.91;5025886;28;20057;-90
2022/08/24 11:44:34;;;;;;;7.35;3.15;;;;;;;18.38;100.00;100512.63;5019708;28;20450;-91
2022/08/24 11:47:13;;;;;;;8.23;4.60;;;;;;;18.24;100.00;100527.81;5029491;28;20081;-92
2022/08/24 11:50:06;;;;;;;11.10;4.97;;;;;;;18.19;100.00;100534.31;5026435;28;20049;-88
2022/08/24 11:52:51;;;;;;;10.45;5.22;;;;;;;18.13;100.00;100536.56;5030185;28;20061;-89